sensor_id;sensor_type;location;lat;lon;timestamp;pressure;altitude;pressure_sealevel;temperature;humidity
72942;BME280;69665;55.822;37.330;2023-04-28T00:02:00;98907.66;;;13.45;42.63
72942;BME280;69665;55.822;37.330;2023-04-28T00:04:27;98895.84;;;13.36;42.04
72942;BME280;69665;55.822;37.330;2023-04-28T00:06:53;98899.16;;;13.40;42.59
72942;BME280;69665;55.822;37.330;2023-04-28T00:09:19;98896.22;;;13.44;41.91
72942;BME280;69665;55.822;37.330;2023-04-28T00:11:44;98898.94;;;13.57;42.45
72942;BME280;69665;55.822;37.330;2023-04-28T00:14:11;98902.16;;;13.62;42.80
72942;BME280;69665;55.822;37.330;2023-04-28T00:16:36;98885.63;;;13.58;42.15
72942;BME280;69665;55.822;37.330;2023-04-28T00:19:02;98907.56;;;13.75;41.85
72942;BME280;69665;55.822;37.330;2023-04-28T00:21:27;98877.88;;;13.55;41.98
72942;BME280;69665;55.822;37.330;2023-04-28T00:23:53;98908.41;;;13.75;41.56
72942;BME280;69665;55.822;37.330;2023-04-28T00:26:19;98902.25;;;13.75;42.72
72942;BME280;69665;55.822;37.330;2023-04-28T00:28:45;98894.41;;;13.73;42.00
72942;BME280;69665;55.822;37.330;2023-04-28T00:31:12;98898.53;;;13.77;43.17
72942;BME280;69665;55.822;37.330;2023-04-28T00:33:41;98906.28;;;13.80;43.09
72942;BME280;69665;55.822;37.330;2023-04-28T00:36:07;98903.34;;;13.85;44.83
72942;BME280;69665;55.822;37.330;2023-04-28T00:38:33;98898.16;;;13.83;42.61
72942;BME280;69665;55.822;37.330;2023-04-28T00:41:00;98896.28;;;13.85;42.27
72942;BME280;69665;55.822;37.330;2023-04-28T00:43:25;98899.56;;;13.89;42.41
72942;BME280;69665;55.822;37.330;2023-04-28T00:45:51;98888.13;;;13.88;42.74
72942;BME280;69665;55.822;37.330;2023-04-28T00:48:18;98895.59;;;13.96;43.44
72942;BME280;69665;55.822;37.330;2023-04-28T00:50:44;98890.66;;;14.04;41.90
72942;BME280;69665;55.822;37.330;2023-04-28T00:53:11;98886.00;;;14.08;41.20
72942;BME280;69665;55.822;37.330;2023-04-28T00:55:37;98889.97;;;14.15;41.67
72942;BME280;69665;55.822;37.330;2023-04-28T00:58:04;98886.28;;;14.17;42.07
72942;BME280;69665;55.822;37.330;2023-04-28T01:00:30;98888.81;;;14.19;42.03
72942;BME280;69665;55.822;37.330;2023-04-28T01:02:56;98891.09;;;14.25;41.53
72942;BME280;69665;55.822;37.330;2023-04-28T01:05:24;98883.22;;;14.23;41.71
72942;BME280;69665;55.822;37.330;2023-04-28T01:07:51;98877.09;;;14.23;41.88
72942;BME280;69665;55.822;37.330;2023-04-28T01:10:16;98887.28;;;14.29;43.43
72942;BME280;69665;55.822;37.330;2023-04-28T01:12:42;98891.59;;;14.30;41.13
72942;BME280;69665;55.822;37.330;2023-04-28T01:15:18;98883.66;;;14.30;42.97
72942;BME280;69665;55.822;37.330;2023-04-28T01:17:46;98888.25;;;14.28;41.44
72942;BME280;69665;55.822;37.330;2023-04-28T01:20:13;98884.63;;;14.29;42.88
72942;BME280;69665;55.822;37.330;2023-04-28T01:22:39;98881.34;;;14.25;41.22
72942;BME280;69665;55.822;37.330;2023-04-28T01:25:06;98882.94;;;14.28;41.38
72942;BME280;69665;55.822;37.330;2023-04-28T01:27:32;98888.44;;;14.25;41.77
72942;BME280;69665;55.822;37.330;2023-04-28T01:29:57;98900.06;;;14.22;40.71
72942;BME280;69665;55.822;37.330;2023-04-28T01:32:23;98893.06;;;14.21;42.19
72942;BME280;69665;55.822;37.330;2023-04-28T01:34:48;98901.03;;;14.21;40.90
72942;BME280;69665;55.822;37.330;2023-04-28T01:37:14;98891.38;;;14.20;41.39
72942;BME280;69665;55.822;37.330;2023-04-28T01:39:40;98883.53;;;14.19;42.31
72942;BME280;69665;55.822;37.330;2023-04-28T01:42:08;98897.63;;;14.19;42.95
72942;BME280;69665;55.822;37.330;2023-04-28T01:44:34;98893.94;;;14.22;41.95
72942;BME280;69665;55.822;37.330;2023-04-28T01:46:59;98877.28;;;14.20;41.68
72942;BME280;69665;55.822;37.330;2023-04-28T01:49:25;98890.47;;;14.34;42.67
72942;BME280;69665;55.822;37.330;2023-04-28T01:51:50;98874.38;;;14.37;43.67
72942;BME280;69665;55.822;37.330;2023-04-28T01:54:16;98887.91;;;14.47;41.67
72942;BME280;69665;55.822;37.330;2023-04-28T01:56:42;98869.16;;;14.36;41.76
72942;BME280;69665;55.822;37.330;2023-04-28T01:59:09;98891.00;;;14.39;42.49
72942;BME280;69665;55.822;37.330;2023-04-28T02:01:35;98875.94;;;14.27;42.01
72942;BME280;69665;55.822;37.330;2023-04-28T02:04:00;98870.94;;;14.22;41.77
72942;BME280;69665;55.822;37.330;2023-04-28T02:06:26;98880.50;;;14.25;41.76
72942;BME280;69665;55.822;37.330;2023-04-28T02:08:52;98885.59;;;14.28;42.92
72942;BME280;69665;55.822;37.330;2023-04-28T02:11:17;98879.63;;;14.24;41.77
72942;BME280;69665;55.822;37.330;2023-04-28T02:13:43;98876.88;;;14.26;41.04
72942;BME280;69665;55.822;37.330;2023-04-28T02:16:08;98869.91;;;14.25;42.60
72942;BME280;69665;55.822;37.330;2023-04-28T02:18:34;98878.91;;;14.35;41.46
72942;BME280;69665;55.822;37.330;2023-04-28T02:21:10;98887.50;;;14.39;43.05
72942;BME280;69665;55.822;37.330;2023-04-28T02:23:37;98884.50;;;14.45;42.14
72942;BME280;69665;55.822;37.330;2023-04-28T02:26:04;98896.50;;;14.50;40.81
72942;BME280;69665;55.822;37.330;2023-04-28T02:28:30;98886.84;;;14.49;42.40
72942;BME280;69665;55.822;37.330;2023-04-28T02:31:10;98868.50;;;14.46;42.96
72942;BME280;69665;55.822;37.330;2023-04-28T02:33:36;98891.72;;;14.55;42.42
72942;BME280;69665;55.822;37.330;2023-04-28T02:36:03;98897.78;;;14.57;40.89
72942;BME280;69665;55.822;37.330;2023-04-28T02:38:29;98889.41;;;14.51;41.37
72942;BME280;69665;55.822;37.330;2023-04-28T02:41:05;98900.94;;;14.50;42.67
72942;BME280;69665;55.822;37.330;2023-04-28T02:43:31;98896.81;;;14.46;42.53
72942;BME280;69665;55.822;37.330;2023-04-28T02:45:57;98890.44;;;14.48;41.93
72942;BME280;69665;55.822;37.330;2023-04-28T02:48:24;98888.84;;;14.46;42.03
72942;BME280;69665;55.822;37.330;2023-04-28T02:50:49;98884.88;;;14.39;43.31
72942;BME280;69665;55.822;37.330;2023-04-28T02:53:15;98901.38;;;14.56;41.96
72942;BME280;69665;55.822;37.330;2023-04-28T02:55:41;98903.72;;;14.61;42.11
72942;BME280;69665;55.822;37.330;2023-04-28T02:58:07;98904.69;;;14.60;41.31
72942;BME280;69665;55.822;37.330;2023-04-28T03:00:32;98903.53;;;14.64;41.43
72942;BME280;69665;55.822;37.330;2023-04-28T03:02:58;98914.56;;;14.71;41.55
72942;BME280;69665;55.822;37.330;2023-04-28T03:05:23;98902.28;;;14.70;41.58
72942;BME280;69665;55.822;37.330;2023-04-28T03:07:49;98923.63;;;14.81;41.38
72942;BME280;69665;55.822;37.330;2023-04-28T03:10:15;98917.88;;;14.87;40.79
72942;BME280;69665;55.822;37.330;2023-04-28T03:12:40;98903.78;;;14.86;40.89
72942;BME280;69665;55.822;37.330;2023-04-28T03:15:06;98917.25;;;14.83;41.54
72942;BME280;69665;55.822;37.330;2023-04-28T03:17:35;98911.09;;;14.83;38.94
72942;BME280;69665;55.822;37.330;2023-04-28T03:20:03;98914.16;;;14.77;42.06
72942;BME280;69665;55.822;37.330;2023-04-28T03:22:29;98918.72;;;14.75;41.61
72942;BME280;69665;55.822;37.330;2023-04-28T03:24:55;98906.72;;;14.69;40.88
72942;BME280;69665;55.822;37.330;2023-04-28T03:27:22;98912.38;;;14.77;40.74
72942;BME280;69665;55.822;37.330;2023-04-28T03:29:47;98922.66;;;14.82;41.43
72942;BME280;69665;55.822;37.330;2023-04-28T03:32:14;98933.78;;;14.87;41.66
72942;BME280;69665;55.822;37.330;2023-04-28T03:34:39;98934.53;;;14.89;41.40
72942;BME280;69665;55.822;37.330;2023-04-28T03:37:05;98928.72;;;14.97;41.30
72942;BME280;69665;55.822;37.330;2023-04-28T03:39:31;98940.53;;;15.05;40.88
72942;BME280;69665;55.822;37.330;2023-04-28T03:41:57;98931.94;;;15.02;40.11
72942;BME280;69665;55.822;37.330;2023-04-28T03:44:48;98939.78;;;15.16;40.63
72942;BME280;69665;55.822;37.330;2023-04-28T03:47:14;98945.13;;;15.28;41.09
72942;BME280;69665;55.822;37.330;2023-04-28T03:49:40;98930.56;;;15.34;40.66
72942;BME280;69665;55.822;37.330;2023-04-28T03:52:06;98935.38;;;15.54;40.48
72942;BME280;69665;55.822;37.330;2023-04-28T03:54:32;98939.50;;;15.71;39.86
72942;BME280;69665;55.822;37.330;2023-04-28T03:56:59;98943.44;;;15.78;41.02
72942;BME280;69665;55.822;37.330;2023-04-28T03:59:25;98925.19;;;15.74;39.87
72942;BME280;69665;55.822;37.330;2023-04-28T04:01:51;98930.69;;;15.83;40.22
72942;BME280;69665;55.822;37.330;2023-04-28T04:04:16;98940.00;;;15.89;39.44
72942;BME280;69665;55.822;37.330;2023-04-28T04:06:42;98935.44;;;15.91;40.24
72942;BME280;69665;55.822;37.330;2023-04-28T04:09:08;98934.91;;;15.99;39.52
72942;BME280;69665;55.822;37.330;2023-04-28T04:11:34;98944.41;;;16.26;39.18
72942;BME280;69665;55.822;37.330;2023-04-28T04:14:00;98940.75;;;16.64;39.01
72942;BME280;69665;55.822;37.330;2023-04-28T04:16:26;98934.53;;;17.11;38.52
72942;BME280;69665;55.822;37.330;2023-04-28T04:18:54;98930.25;;;17.55;37.65
72942;BME280;69665;55.822;37.330;2023-04-28T04:21:22;98935.00;;;17.62;38.20
72942;BME280;69665;55.822;37.330;2023-04-28T04:23:49;98931.94;;;17.45;35.87
72942;BME280;69665;55.822;37.330;2023-04-28T04:26:15;98951.38;;;17.23;37.33
72942;BME280;69665;55.822;37.330;2023-04-28T04:28:41;98937.00;;;16.90;38.14
72942;BME280;69665;55.822;37.330;2023-04-28T04:31:08;98949.94;;;16.84;36.56
72942;BME280;69665;55.822;37.330;2023-04-28T04:33:34;98955.53;;;16.68;36.81
72942;BME280;69665;55.822;37.330;2023-04-28T04:36:02;98953.69;;;16.45;38.65
72942;BME280;69665;55.822;37.330;2023-04-28T04:38:29;98949.06;;;16.23;39.23
72942;BME280;69665;55.822;37.330;2023-04-28T04:40:56;98966.09;;;16.20;38.97
72942;BME280;69665;55.822;37.330;2023-04-28T04:43:22;98960.59;;;16.11;39.51
72942;BME280;69665;55.822;37.330;2023-04-28T04:45:49;98970.38;;;16.10;39.03
72942;BME280;69665;55.822;37.330;2023-04-28T04:48:14;98968.16;;;15.91;39.19
72942;BME280;69665;55.822;37.330;2023-04-28T04:50:41;98975.59;;;15.86;38.70
72942;BME280;69665;55.822;37.330;2023-04-28T04:53:08;98977.97;;;15.78;39.64
72942;BME280;69665;55.822;37.330;2023-04-28T04:55:34;98979.44;;;15.70;39.79
72942;BME280;69665;55.822;37.330;2023-04-28T04:58:00;98957.13;;;15.59;40.37
72942;BME280;69665;55.822;37.330;2023-04-28T05:00:44;98958.94;;;15.72;40.42
72942;BME280;69665;55.822;37.330;2023-04-28T05:03:11;98958.94;;;15.84;41.41
72942;BME280;69665;55.822;37.330;2023-04-28T05:05:39;98974.00;;;15.97;40.31
72942;BME280;69665;55.822;37.330;2023-04-28T05:08:19;98973.69;;;16.01;40.18
72942;BME280;69665;55.822;37.330;2023-04-28T05:10:45;98980.38;;;16.07;40.32
72942;BME280;69665;55.822;37.330;2023-04-28T05:13:10;98973.47;;;16.04;40.44
72942;BME280;69665;55.822;37.330;2023-04-28T05:15:37;98958.91;;;15.97;40.67
72942;BME280;69665;55.822;37.330;2023-04-28T05:18:25;98986.41;;;16.09;40.20
72942;BME280;69665;55.822;37.330;2023-04-28T05:20:51;99002.03;;;16.01;40.41
72942;BME280;69665;55.822;37.330;2023-04-28T05:23:17;99012.13;;;15.95;40.33
72942;BME280;69665;55.822;37.330;2023-04-28T05:25:43;99019.88;;;15.86;41.87
72942;BME280;69665;55.822;37.330;2023-04-28T05:28:09;99023.59;;;15.71;40.30
72942;BME280;69665;55.822;37.330;2023-04-28T05:30:35;99006.13;;;15.41;41.17
72942;BME280;69665;55.822;37.330;2023-04-28T05:33:01;99028.84;;;15.33;40.40
72942;BME280;69665;55.822;37.330;2023-04-28T05:35:26;99017.75;;;15.13;42.06
72942;BME280;69665;55.822;37.330;2023-04-28T05:37:52;99015.31;;;15.10;42.68
72942;BME280;69665;55.822;37.330;2023-04-28T05:40:19;99014.03;;;15.03;42.87
72942;BME280;69665;55.822;37.330;2023-04-28T05:42:45;99024.63;;;15.03;43.81
72942;BME280;69665;55.822;37.330;2023-04-28T05:45:11;99010.31;;;15.06;43.97
72942;BME280;69665;55.822;37.330;2023-04-28T05:47:37;99003.31;;;15.05;43.79
72942;BME280;69665;55.822;37.330;2023-04-28T05:50:03;98992.81;;;15.03;43.86
72942;BME280;69665;55.822;37.330;2023-04-28T05:52:29;99003.75;;;15.11;44.32
72942;BME280;69665;55.822;37.330;2023-04-28T05:54:54;99010.03;;;15.23;44.37
72942;BME280;69665;55.822;37.330;2023-04-28T05:57:20;99009.63;;;15.29;43.53
72942;BME280;69665;55.822;37.330;2023-04-28T05:59:46;99007.72;;;15.31;43.90
72942;BME280;69665;55.822;37.330;2023-04-28T06:02:13;99002.75;;;15.39;43.94
72942;BME280;69665;55.822;37.330;2023-04-28T06:04:38;99007.75;;;15.44;43.96
72942;BME280;69665;55.822;37.330;2023-04-28T06:07:04;99007.22;;;15.51;43.93
72942;BME280;69665;55.822;37.330;2023-04-28T06:09:31;98997.78;;;15.60;43.22
72942;BME280;69665;55.822;37.330;2023-04-28T06:11:58;99005.88;;;15.71;43.69
72942;BME280;69665;55.822;37.330;2023-04-28T06:14:24;99005.03;;;15.83;43.40
72942;BME280;69665;55.822;37.330;2023-04-28T06:16:50;99002.69;;;16.04;43.42
72942;BME280;69665;55.822;37.330;2023-04-28T06:19:15;98991.84;;;15.94;43.21
72942;BME280;69665;55.822;37.330;2023-04-28T06:21:44;98987.50;;;15.93;43.17
72942;BME280;69665;55.822;37.330;2023-04-28T06:24:09;99005.41;;;16.15;43.09
72942;BME280;69665;55.822;37.330;2023-04-28T06:26:36;98979.88;;;16.25;43.13
72942;BME280;69665;55.822;37.330;2023-04-28T06:29:02;98992.44;;;16.60;41.91
72942;BME280;69665;55.822;37.330;2023-04-28T06:31:28;98997.69;;;17.20;41.31
72942;BME280;69665;55.822;37.330;2023-04-28T06:33:54;98988.22;;;17.51;41.27
72942;BME280;69665;55.822;37.330;2023-04-28T06:36:21;98995.28;;;17.63;41.46
72942;BME280;69665;55.822;37.330;2023-04-28T06:38:47;98986.94;;;17.68;41.88
72942;BME280;69665;55.822;37.330;2023-04-28T06:41:12;98995.69;;;17.81;40.77
72942;BME280;69665;55.822;37.330;2023-04-28T06:43:40;98994.47;;;18.08;39.99
72942;BME280;69665;55.822;37.330;2023-04-28T06:46:09;98986.34;;;18.31;37.67
72942;BME280;69665;55.822;37.330;2023-04-28T06:48:38;98969.78;;;18.82;39.21
72942;BME280;69665;55.822;37.330;2023-04-28T06:51:03;98972.19;;;19.59;38.56
72942;BME280;69665;55.822;37.330;2023-04-28T06:53:29;98972.78;;;20.23;38.27
72942;BME280;69665;55.822;37.330;2023-04-28T06:55:55;98976.31;;;20.83;36.44
72942;BME280;69665;55.822;37.330;2023-04-28T06:58:20;98973.50;;;21.14;35.62
72942;BME280;69665;55.822;37.330;2023-04-28T07:00:47;98973.25;;;21.46;35.51
72942;BME280;69665;55.822;37.330;2023-04-28T07:03:12;98972.81;;;21.50;36.46
72942;BME280;69665;55.822;37.330;2023-04-28T07:05:38;98971.69;;;21.33;35.04
72942;BME280;69665;55.822;37.330;2023-04-28T07:08:03;98978.75;;;21.34;34.92
72942;BME280;69665;55.822;37.330;2023-04-28T07:10:29;98981.84;;;21.40;33.77
72942;BME280;69665;55.822;37.330;2023-04-28T07:12:55;98981.88;;;21.20;35.22
72942;BME280;69665;55.822;37.330;2023-04-28T07:15:22;98985.22;;;21.03;35.14
72942;BME280;69665;55.822;37.330;2023-04-28T07:17:48;98977.16;;;20.64;35.68
72942;BME280;69665;55.822;37.330;2023-04-28T07:20:14;98985.66;;;20.39;36.45
72942;BME280;69665;55.822;37.330;2023-04-28T07:22:40;98992.94;;;19.97;35.69
72942;BME280;69665;55.822;37.330;2023-04-28T07:25:05;98994.09;;;19.53;36.20
72942;BME280;69665;55.822;37.330;2023-04-28T07:27:31;98992.59;;;19.07;37.29
72942;BME280;69665;55.822;37.330;2023-04-28T07:29:57;99005.78;;;18.77;38.14
72942;BME280;69665;55.822;37.330;2023-04-28T07:32:22;99011.16;;;18.54;38.37
72942;BME280;69665;55.822;37.330;2023-04-28T07:34:48;99006.34;;;18.37;38.75
72942;BME280;69665;55.822;37.330;2023-04-28T07:37:14;99013.13;;;18.30;39.24
72942;BME280;69665;55.822;37.330;2023-04-28T07:39:39;99008.41;;;18.22;39.79
72942;BME280;69665;55.822;37.330;2023-04-28T07:42:09;99008.78;;;18.18;40.01
72942;BME280;69665;55.822;37.330;2023-04-28T07:44:34;99009.13;;;18.24;40.16
72942;BME280;69665;55.822;37.330;2023-04-28T07:47:01;99011.91;;;18.23;38.45
72942;BME280;69665;55.822;37.330;2023-04-28T07:49:30;99013.63;;;18.13;40.50
72942;BME280;69665;55.822;37.330;2023-04-28T07:51:56;99019.69;;;18.04;39.55
72942;BME280;69665;55.822;37.330;2023-04-28T07:54:21;99019.41;;;17.95;39.48
72942;BME280;69665;55.822;37.330;2023-04-28T07:56:47;99017.13;;;17.91;39.59
72942;BME280;69665;55.822;37.330;2023-04-28T07:59:13;99007.69;;;17.87;39.34
72942;BME280;69665;55.822;37.330;2023-04-28T08:01:39;98980.91;;;17.66;40.22
72942;BME280;69665;55.822;37.330;2023-04-28T08:04:04;99008.53;;;17.98;39.25
72942;BME280;69665;55.822;37.330;2023-04-28T08:06:30;98993.28;;;18.12;40.18
72942;BME280;69665;55.822;37.330;2023-04-28T08:08:57;98998.59;;;18.34;38.98
72942;BME280;69665;55.822;37.330;2023-04-28T08:11:22;99000.88;;;18.39;39.63
72942;BME280;69665;55.822;37.330;2023-04-28T08:13:48;99008.53;;;18.43;40.17
72942;BME280;69665;55.822;37.330;2023-04-28T08:16:14;99011.31;;;18.30;40.33
72942;BME280;69665;55.822;37.330;2023-04-28T08:18:40;98998.72;;;18.10;39.23
72942;BME280;69665;55.822;37.330;2023-04-28T08:21:05;98997.28;;;18.06;39.89
72942;BME280;69665;55.822;37.330;2023-04-28T08:23:34;99001.75;;;18.06;40.33
72942;BME280;69665;55.822;37.330;2023-04-28T08:25:59;99004.88;;;18.00;40.27
72942;BME280;69665;55.822;37.330;2023-04-28T08:28:26;99002.69;;;17.93;40.40
72942;BME280;69665;55.822;37.330;2023-04-28T08:30:51;99007.66;;;17.98;41.00
72942;BME280;69665;55.822;37.330;2023-04-28T08:33:18;99000.41;;;18.00;40.44
72942;BME280;69665;55.822;37.330;2023-04-28T08:35:44;99003.44;;;17.95;40.34
72942;BME280;69665;55.822;37.330;2023-04-28T08:38:09;98998.38;;;17.92;40.40
72942;BME280;69665;55.822;37.330;2023-04-28T08:40:39;99008.53;;;17.98;40.63
72942;BME280;69665;55.822;37.330;2023-04-28T08:43:05;98992.56;;;17.87;40.63
72942;BME280;69665;55.822;37.330;2023-04-28T08:45:40;98996.53;;;17.93;42.23
72942;BME280;69665;55.822;37.330;2023-04-28T08:48:19;98996.28;;;17.96;43.51
72942;BME280;69665;55.822;37.330;2023-04-28T08:50:52;99009.50;;;18.09;41.91
72942;BME280;69665;55.822;37.330;2023-04-28T08:53:24;99016.06;;;18.16;41.45
72942;BME280;69665;55.822;37.330;2023-04-28T08:55:55;99009.75;;;18.17;41.39
72942;BME280;69665;55.822;37.330;2023-04-28T08:58:22;98998.59;;;18.12;40.58
72942;BME280;69665;55.822;37.330;2023-04-28T09:00:49;99009.38;;;18.21;40.80
72942;BME280;69665;55.822;37.330;2023-04-28T09:03:15;99015.56;;;18.33;40.65
72942;BME280;69665;55.822;37.330;2023-04-28T09:05:40;99018.19;;;18.55;40.60
72942;BME280;69665;55.822;37.330;2023-04-28T09:08:06;99009.97;;;18.70;40.97
72942;BME280;69665;55.822;37.330;2023-04-28T09:10:31;99017.66;;;18.84;40.26
72942;BME280;69665;55.822;37.330;2023-04-28T09:12:57;99015.63;;;18.76;40.91
72942;BME280;69665;55.822;37.330;2023-04-28T09:15:31;99022.22;;;18.61;41.27
72942;BME280;69665;55.822;37.330;2023-04-28T09:17:57;99024.50;;;18.54;40.20
72942;BME280;69665;55.822;37.330;2023-04-28T09:20:27;99019.03;;;18.56;40.75
72942;BME280;69665;55.822;37.330;2023-04-28T09:22:54;98996.50;;;18.49;40.90
72942;BME280;69665;55.822;37.330;2023-04-28T09:25:22;99003.16;;;18.54;40.88
72942;BME280;69665;55.822;37.330;2023-04-28T09:27:51;99002.91;;;18.57;40.91
72942;BME280;69665;55.822;37.330;2023-04-28T09:30:17;99006.22;;;18.61;40.53
72942;BME280;69665;55.822;37.330;2023-04-28T09:32:43;99005.81;;;18.54;40.23
72942;BME280;69665;55.822;37.330;2023-04-28T09:35:09;99019.53;;;18.50;40.81
72942;BME280;69665;55.822;37.330;2023-04-28T09:37:35;99019.44;;;18.40;40.24
72942;BME280;69665;55.822;37.330;2023-04-28T09:40:04;99008.78;;;18.40;41.01
72942;BME280;69665;55.822;37.330;2023-04-28T09:42:41;99004.78;;;18.35;42.37
72942;BME280;69665;55.822;37.330;2023-04-28T09:45:11;99005.38;;;18.27;40.86
72942;BME280;69665;55.822;37.330;2023-04-28T09:47:39;99002.97;;;18.13;40.73
72942;BME280;69665;55.822;37.330;2023-04-28T09:50:07;99013.72;;;18.00;41.68
72942;BME280;69665;55.822;37.330;2023-04-28T09:52:34;99023.16;;;17.93;41.49
72942;BME280;69665;55.822;37.330;2023-04-28T09:55:04;99015.53;;;17.77;42.80
72942;BME280;69665;55.822;37.330;2023-04-28T09:57:32;99030.41;;;17.69;42.18
72942;BME280;69665;55.822;37.330;2023-04-28T09:59:58;99024.88;;;17.48;40.69
72942;BME280;69665;55.822;37.330;2023-04-28T10:02:24;99040.47;;;17.41;44.00
72942;BME280;69665;55.822;37.330;2023-04-28T10:04:50;99040.03;;;17.23;43.90
72942;BME280;69665;55.822;37.330;2023-04-28T10:07:20;99041.66;;;17.02;45.51
72942;BME280;69665;55.822;37.330;2023-04-28T10:09:47;99037.09;;;16.91;44.08
72942;BME280;69665;55.822;37.330;2023-04-28T10:12:18;99047.16;;;16.88;45.80
72942;BME280;69665;55.822;37.330;2023-04-28T10:14:46;99044.72;;;16.85;45.44
72942;BME280;69665;55.822;37.330;2023-04-28T10:17:14;99040.03;;;16.88;50.70
72942;BME280;69665;55.822;37.330;2023-04-28T10:19:41;99044.00;;;16.94;46.45
72942;BME280;69665;55.822;37.330;2023-04-28T10:27:29;99040.16;;;17.57;47.53
72942;BME280;69665;55.822;37.330;2023-04-28T10:30:16;99042.72;;;17.58;49.48
72942;BME280;69665;55.822;37.330;2023-04-28T10:32:42;99036.88;;;17.53;45.40
72942;BME280;69665;55.822;37.330;2023-04-28T10:38:05;99040.63;;;17.97;47.41
72942;BME280;69665;55.822;37.330;2023-04-28T10:40:41;99032.66;;;18.42;46.05
72942;BME280;69665;55.822;37.330;2023-04-28T10:43:12;99034.94;;;18.69;43.92
72942;BME280;69665;55.822;37.330;2023-04-28T10:56:24;99049.50;;;19.72;42.15
72942;BME280;69665;55.822;37.330;2023-04-28T10:58:55;99031.81;;;19.59;42.41
72942;BME280;69665;55.822;37.330;2023-04-28T11:03:57;99042.28;;;19.51;40.92
72942;BME280;69665;55.822;37.330;2023-04-28T11:06:36;99047.06;;;19.37;41.29
72942;BME280;69665;55.822;37.330;2023-04-28T11:16:49;99059.63;;;18.82;42.86
72942;BME280;69665;55.822;37.330;2023-04-28T11:19:26;99066.19;;;18.55;44.14
72942;BME280;69665;55.822;37.330;2023-04-28T11:21:57;99060.03;;;18.33;42.77
72942;BME280;69665;55.822;37.330;2023-04-28T11:24:24;99063.41;;;18.12;42.59
72942;BME280;69665;55.822;37.330;2023-04-28T11:26:50;99060.97;;;17.87;43.20
72942;BME280;69665;55.822;37.330;2023-04-28T11:29:16;99066.72;;;17.70;43.06
72942;BME280;69665;55.822;37.330;2023-04-28T11:31:49;99072.09;;;17.57;44.90
72942;BME280;69665;55.822;37.330;2023-04-28T11:34:19;99066.97;;;17.43;44.04
72942;BME280;69665;55.822;37.330;2023-04-28T11:36:46;99078.84;;;17.39;43.77
72942;BME280;69665;55.822;37.330;2023-04-28T11:39:12;99072.78;;;17.37;43.57
72942;BME280;69665;55.822;37.330;2023-04-28T11:41:47;99079.28;;;17.33;44.96
72942;BME280;69665;55.822;37.330;2023-04-28T11:44:22;99075.22;;;17.40;46.04
72942;BME280;69665;55.822;37.330;2023-04-28T11:49:25;99069.69;;;17.54;44.45
72942;BME280;69665;55.822;37.330;2023-04-28T11:52:03;99070.88;;;17.50;45.15
72942;BME280;69665;55.822;37.330;2023-04-28T11:54:30;99057.16;;;17.43;43.74
72942;BME280;69665;55.822;37.330;2023-04-28T11:56:57;99059.25;;;17.40;43.65
72942;BME280;69665;55.822;37.330;2023-04-28T11:59:33;99066.72;;;17.35;45.65
72942;BME280;69665;55.822;37.330;2023-04-28T12:02:04;99060.13;;;17.27;44.05
72942;BME280;69665;55.822;37.330;2023-04-28T12:04:37;99061.91;;;17.51;44.56
72942;BME280;69665;55.822;37.330;2023-04-28T12:09:37;99065.31;;;17.88;43.05
72942;BME280;69665;55.822;37.330;2023-04-28T12:12:05;99043.13;;;17.65;43.03
72942;BME280;69665;55.822;37.330;2023-04-28T12:14:32;99064.78;;;17.72;42.76
72942;BME280;69665;55.822;37.330;2023-04-28T12:17:00;99064.31;;;17.78;42.22
72942;BME280;69665;55.822;37.330;2023-04-28T12:19:26;99073.63;;;17.72;42.62
72942;BME280;69665;55.822;37.330;2023-04-28T12:24:24;99075.44;;;17.37;43.16
72942;BME280;69665;55.822;37.330;2023-04-28T12:26:51;99085.72;;;17.17;43.77
72942;BME280;69665;55.822;37.330;2023-04-28T12:32:03;99083.03;;;17.06;43.13
72942;BME280;69665;55.822;37.330;2023-04-28T12:34:29;99088.50;;;17.16;43.48
72942;BME280;69665;55.822;37.330;2023-04-28T12:36:55;99097.28;;;17.05;42.42
72942;BME280;69665;55.822;37.330;2023-04-28T12:39:20;99082.56;;;16.88;43.56
72942;BME280;69665;55.822;37.330;2023-04-28T12:41:47;99081.41;;;16.80;43.04
72942;BME280;69665;55.822;37.330;2023-04-28T12:44:12;99074.44;;;16.66;43.20
72942;BME280;69665;55.822;37.330;2023-04-28T12:46:40;99087.50;;;16.69;43.52
72942;BME280;69665;55.822;37.330;2023-04-28T12:49:05;99071.16;;;16.37;43.93
72942;BME280;69665;55.822;37.330;2023-04-28T12:51:32;99073.84;;;16.12;42.83
72942;BME280;69665;55.822;37.330;2023-04-28T12:54:00;99105.84;;;15.98;43.24
72942;BME280;69665;55.822;37.330;2023-04-28T12:56:25;99111.91;;;15.60;45.59
72942;BME280;69665;55.822;37.330;2023-04-28T12:58:51;99113.41;;;15.37;44.50
72942;BME280;69665;55.822;37.330;2023-04-28T13:01:17;99111.59;;;15.25;44.79
72942;BME280;69665;55.822;37.330;2023-04-28T13:03:43;99107.72;;;15.16;43.33
72942;BME280;69665;55.822;37.330;2023-04-28T13:06:09;99105.25;;;15.27;44.46
72942;BME280;69665;55.822;37.330;2023-04-28T13:08:35;99106.22;;;15.39;44.42
72942;BME280;69665;55.822;37.330;2023-04-28T13:11:01;99075.84;;;15.31;43.29
72942;BME280;69665;55.822;37.330;2023-04-28T13:13:29;99111.31;;;15.42;43.66
72942;BME280;69665;55.822;37.330;2023-04-28T13:15:55;99109.63;;;15.41;43.35
72942;BME280;69665;55.822;37.330;2023-04-28T13:18:21;99116.94;;;15.38;43.01
72942;BME280;69665;55.822;37.330;2023-04-28T13:20:48;99125.09;;;15.35;43.34
72942;BME280;69665;55.822;37.330;2023-04-28T13:23:13;99128.38;;;15.25;43.84
72942;BME280;69665;55.822;37.330;2023-04-28T13:25:39;99117.13;;;15.08;42.30
72942;BME280;69665;55.822;37.330;2023-04-28T13:28:05;99129.78;;;14.90;43.22
72942;BME280;69665;55.822;37.330;2023-04-28T13:30:30;99138.13;;;14.84;44.65